Terminal Aerodrome Forecast
Issued by NWS

Home | Current Version | Previous Version | Text Only | Print | Product List | Glossary Off
Versions: 1 2 3 4 5 6 7 8 9 10 11 12 13 14 15 16 17 18 19 20 21 22 23 24 25 26 27 28 29 30

000
FTUS43 KLOT 200858 AAA
TAFMDW
TAF AMD
KMDW 200858Z 2009/2106 16005KT P6SM BKN250
     FM201100 15007KT 3SM BR SCT006 BKN250
      TEMPO 2012/2015 1 1/2SM BR BKN006
     FM201600 15011KT 5SM BR FEW006 BKN015 OVC200
     FM201800 15013G21KT P6SM SCT035 OVC200
     FM210100 16014G24KT P6SM OVC150
     FM210400 19013G23KT P6SM OVC035 WS015/19045KT=

USA.gov is the U.S. government's official web portal to all federal, state and local government web resources and services.